createdAt,value
2023-05-05T00:03:19.627Z,13.85
2023-05-05T00:08:21.516Z,14.13
2023-05-05T00:13:23.074Z,14.36
2023-05-05T00:18:24.546Z,14.34
2023-05-05T00:23:27.427Z,14.15
2023-05-05T00:28:28.892Z,13.61
2023-05-05T00:33:30.540Z,13.91
2023-05-05T00:38:32.080Z,13.80
2023-05-05T00:43:33.548Z,13.11
2023-05-05T00:48:35.001Z,13.79
2023-05-05T00:53:36.513Z,13.82
2023-05-05T00:58:37.983Z,13.45
2023-05-05T01:03:39.790Z,12.92
2023-05-05T01:08:49.950Z,13.49
2023-05-05T01:14:06.213Z,13.93
2023-05-05T01:19:40.959Z,13.68
2023-05-05T01:25:05.518Z,13.38
2023-05-05T01:30:26.734Z,13.73
2023-05-05T01:35:29.862Z,13.77
2023-05-05T01:40:33.595Z,13.45
2023-05-05T01:45:36.185Z,13.22
2023-05-05T01:50:37.689Z,13.72
2023-05-05T01:55:39.214Z,13.46
2023-05-05T02:00:40.683Z,13.57
2023-05-05T02:05:42.163Z,13.13
2023-05-05T02:10:43.649Z,13.55
2023-05-05T02:15:45.282Z,13.37
2023-05-05T02:20:46.754Z,13.24
2023-05-05T02:25:52.957Z,13.18
2023-05-05T02:30:58.268Z,13.32
2023-05-05T02:35:59.865Z,13.58
2023-05-05T02:41:01.320Z,13.09
2023-05-05T02:46:02.868Z,13.45
2023-05-05T02:51:04.508Z,13.21
2023-05-05T02:56:28.868Z,13.14
2023-05-05T03:01:59.267Z,13.38
2023-05-05T03:07:14.416Z,13.02
2023-05-05T03:12:21.823Z,12.85
2023-05-05T03:17:23.293Z,12.94
2023-05-05T03:22:24.845Z,13.15
2023-05-05T03:27:26.310Z,12.97
2023-05-05T03:32:27.806Z,13.01
2023-05-05T03:37:29.293Z,12.65
2023-05-05T03:42:30.748Z,12.80
2023-05-05T03:47:32.257Z,12.46
2023-05-05T03:52:33.737Z,12.37
2023-05-05T03:57:35.357Z,12.67
2023-05-05T04:02:36.936Z,12.86
2023-05-05T04:07:38.428Z,12.87
2023-05-05T04:12:39.918Z,12.81
2023-05-05T04:17:41.434Z,12.90
2023-05-05T04:22:43.005Z,13.00
2023-05-05T04:27:44.461Z,12.51
2023-05-05T04:32:45.944Z,12.87
2023-05-05T04:37:47.416Z,12.78
2023-05-05T04:42:48.935Z,13.14
2023-05-05T04:47:50.434Z,12.69
2023-05-05T04:52:52.779Z,13.04
2023-05-05T04:57:54.394Z,13.06
2023-05-05T05:02:56.099Z,12.87
2023-05-05T05:07:57.641Z,13.21
2023-05-05T05:12:59.152Z,13.02
2023-05-05T05:18:00.703Z,12.77
2023-05-05T05:23:02.336Z,12.94
2023-05-05T05:28:10.058Z,12.99
2023-05-05T05:33:12.513Z,13.22
2023-05-05T05:38:14.162Z,12.54
2023-05-05T05:43:15.637Z,13.00
2023-05-05T05:48:17.096Z,12.97
2023-05-05T05:53:18.605Z,13.01
2023-05-05T05:58:20.086Z,13.04
2023-05-05T06:03:21.663Z,13.42
2023-05-05T06:08:24.979Z,13.47
2023-05-05T06:13:26.649Z,13.68
2023-05-05T06:18:30.424Z,13.10
2023-05-05T06:23:31.898Z,13.35
2023-05-05T06:28:33.399Z,13.19
2023-05-05T06:33:34.863Z,13.20
2023-05-05T06:38:36.411Z,13.30
2023-05-05T06:43:37.882Z,13.40
2023-05-05T06:48:39.337Z,13.14
2023-05-05T06:53:41.013Z,12.80
2023-05-05T06:58:42.565Z,13.68
2023-05-05T07:03:44.702Z,13.61
2023-05-05T07:08:46.245Z,13.72
2023-05-05T07:13:49.191Z,14.11
2023-05-05T07:18:50.696Z,13.79
2023-05-05T07:23:52.546Z,14.22
2023-05-05T07:28:56.022Z,14.54
2023-05-05T07:33:57.465Z,14.88
2023-05-05T07:38:58.933Z,14.95
2023-05-05T07:44:01.143Z,14.74
2023-05-05T07:49:03.007Z,14.95
2023-05-05T07:54:04.470Z,14.97
2023-05-05T07:59:05.988Z,14.90
2023-05-05T08:04:07.649Z,14.86
2023-05-05T08:09:10.320Z,14.53
2023-05-05T08:14:11.669Z,14.61
2023-05-05T08:19:27.586Z,14.91
2023-05-05T08:24:30.286Z,14.82
2023-05-05T08:29:31.766Z,14.52
2023-05-05T08:34:33.245Z,14.42
2023-05-05T08:39:34.702Z,14.35
2023-05-05T08:44:36.228Z,14.94
2023-05-05T08:49:42.454Z,14.42
2023-05-05T08:54:51.499Z,14.49
2023-05-05T08:59:53.046Z,14.53
2023-05-05T09:04:54.501Z,14.93
2023-05-05T09:09:55.947Z,14.51
2023-05-05T09:14:59.310Z,14.64
2023-05-05T09:20:05.126Z,14.73
2023-05-05T09:25:07.737Z,14.92
2023-05-05T09:30:10.738Z,14.87
2023-05-05T09:35:12.232Z,15.38
2023-05-05T09:40:15.814Z,15.51
2023-05-05T09:45:17.172Z,15.60
2023-05-05T09:50:19.126Z,15.95
2023-05-05T09:55:20.856Z,16.32
2023-05-05T10:00:22.416Z,16.35
2023-05-05T10:05:23.942Z,16.31
2023-05-05T10:10:27.477Z,16.40
2023-05-05T10:15:30.088Z,16.65
2023-05-05T10:20:31.637Z,16.72
2023-05-05T10:25:36.996Z,16.94
2023-05-05T10:30:42.718Z,16.95
2023-05-05T10:35:44.468Z,16.78
2023-05-05T10:40:45.966Z,17.03
2023-05-05T10:45:51.924Z,17.44
2023-05-05T10:51:09.090Z,17.73
2023-05-05T10:56:40.288Z,17.65
2023-05-05T11:01:41.867Z,17.31
2023-05-05T11:07:11.815Z,17.51
2023-05-05T11:12:16.005Z,17.63
2023-05-05T11:17:46.357Z,17.20
2023-05-05T11:23:03.053Z,17.67
2023-05-05T11:28:14.651Z,17.50
2023-05-05T11:33:28.992Z,17.50
2023-05-05T11:38:36.370Z,17.50
2023-05-05T11:43:37.996Z,17.46
2023-05-05T11:48:46.222Z,17.84
2023-05-05T11:53:49.345Z,18.00
2023-05-05T11:59:08.536Z,18.19
2023-05-05T12:04:16.238Z,18.36
2023-05-05T12:09:18.895Z,17.86
2023-05-05T12:14:20.742Z,17.88
2023-05-05T12:19:22.376Z,18.27
2023-05-05T12:24:23.832Z,18.15
2023-05-05T12:29:26.072Z,18.20
2023-05-05T12:34:27.592Z,18.27
2023-05-05T12:39:38.209Z,18.09
2023-05-05T12:44:40.114Z,18.14
2023-05-05T12:49:45.859Z,18.01
2023-05-05T12:54:57.387Z,18.11
2023-05-05T12:59:58.854Z,18.25
2023-05-05T13:05:00.358Z,17.69
2023-05-05T13:10:10.359Z,18.49
2023-05-05T13:15:12.160Z,18.49
2023-05-05T13:20:14.042Z,18.76
2023-05-05T13:25:15.516Z,18.74
2023-05-05T13:30:17.002Z,18.36
2023-05-05T13:35:18.478Z,18.54
2023-05-05T13:40:19.970Z,18.22
2023-05-05T13:45:21.470Z,18.44
2023-05-05T13:50:23.880Z,17.90
2023-05-05T13:55:25.247Z,18.22
2023-05-05T14:00:27.749Z,18.18
2023-05-05T14:05:29.223Z,18.29
2023-05-05T14:10:31.028Z,18.19
2023-05-05T14:15:32.758Z,18.10
2023-05-05T14:20:34.301Z,17.69
2023-05-05T14:25:35.749Z,17.50
2023-05-05T14:30:37.223Z,17.43
2023-05-05T14:35:38.696Z,17.21
2023-05-05T14:40:40.550Z,17.54
2023-05-05T14:45:42.032Z,17.64
2023-05-05T14:50:46.225Z,17.52
2023-05-05T14:55:47.740Z,17.22
2023-05-05T15:00:49.219Z,16.98
2023-05-05T15:05:50.745Z,17.59
2023-05-05T15:10:52.307Z,17.45
2023-05-05T15:15:53.832Z,17.31
2023-05-05T15:20:55.406Z,17.25
2023-05-05T15:25:56.893Z,16.77
2023-05-05T15:31:02.014Z,17.38
2023-05-05T15:36:03.536Z,16.50
2023-05-05T15:41:06.356Z,16.85
2023-05-05T15:46:07.838Z,16.95
2023-05-05T15:51:11.446Z,16.88
2023-05-05T15:56:12.955Z,16.98
2023-05-05T16:01:17.013Z,17.02
2023-05-05T16:06:18.545Z,17.01
2023-05-05T16:11:22.324Z,16.90
2023-05-05T16:16:23.966Z,17.08
2023-05-05T16:21:25.721Z,16.96
2023-05-05T16:26:27.208Z,16.73
2023-05-05T16:31:28.769Z,16.47
2023-05-05T16:36:30.270Z,16.41
2023-05-05T16:41:31.754Z,16.43
2023-05-05T16:46:33.957Z,16.37
2023-05-05T16:51:35.475Z,15.92
2023-05-05T16:56:36.945Z,15.72
2023-05-05T17:01:38.481Z,15.42
2023-05-05T17:06:40.019Z,15.27
2023-05-05T17:11:41.547Z,15.48
2023-05-05T17:16:43.167Z,15.59
2023-05-05T17:21:44.707Z,15.55
2023-05-05T17:26:47.192Z,15.79
2023-05-05T17:31:51.773Z,15.73
2023-05-05T17:36:53.312Z,15.15
2023-05-05T17:41:55.716Z,15.58
2023-05-05T17:47:04.109Z,15.26
2023-05-05T17:52:05.608Z,15.30
2023-05-05T17:57:07.082Z,15.48
2023-05-05T18:02:08.689Z,15.47
2023-05-05T18:07:11.855Z,15.36
2023-05-05T18:12:13.335Z,15.30
2023-05-05T18:17:14.881Z,15.37
2023-05-05T18:22:16.873Z,15.37
2023-05-05T18:27:18.468Z,15.15
2023-05-05T18:32:29.198Z,15.25
2023-05-05T18:37:37.046Z,15.09
2023-05-05T18:42:43.051Z,15.22
2023-05-05T18:47:44.793Z,14.98
2023-05-05T18:52:46.286Z,14.73
2023-05-05T18:57:47.857Z,14.76
2023-05-05T19:02:49.390Z,14.61
2023-05-05T19:07:50.877Z,14.72
2023-05-05T19:12:52.437Z,14.73
2023-05-05T19:17:54.278Z,14.70
2023-05-05T19:22:58.169Z,14.57
2023-05-05T19:27:59.677Z,14.56
2023-05-05T19:33:01.177Z,14.39
2023-05-05T19:38:02.676Z,14.36
2023-05-05T19:43:04.243Z,13.96
2023-05-05T19:48:06.287Z,14.00
2023-05-05T19:53:07.747Z,13.91
2023-05-05T19:58:09.292Z,14.10
2023-05-05T20:03:11.022Z,14.22
2023-05-05T20:08:12.608Z,14.41
2023-05-05T20:13:14.212Z,14.02
2023-05-05T20:18:15.759Z,13.70
2023-05-05T20:23:17.213Z,13.83
2023-05-05T20:28:18.698Z,13.77
2023-05-05T20:33:20.202Z,13.29
2023-05-05T20:38:21.760Z,13.72
2023-05-05T20:43:26.097Z,13.68
2023-05-05T20:53:47.856Z,13.04
2023-05-05T20:58:49.495Z,13.07
2023-05-05T21:03:51.021Z,12.75
2023-05-05T21:08:52.495Z,12.94
2023-05-05T21:13:54.063Z,12.78
2023-05-05T21:18:55.584Z,13.06
2023-05-05T21:23:57.625Z,12.87
2023-05-05T21:28:59.151Z,13.07
2023-05-05T21:34:00.692Z,13.15
2023-05-05T21:39:02.238Z,13.13
2023-05-05T21:44:03.688Z,13.43
2023-05-05T21:49:15.167Z,13.52
2023-05-05T21:54:18.672Z,13.00
2023-05-05T21:59:20.294Z,12.53
2023-05-05T22:04:22.083Z,12.58
2023-05-05T22:09:23.573Z,12.46
2023-05-05T22:14:25.484Z,12.80
2023-05-05T22:19:27.050Z,12.79
2023-05-05T22:24:30.062Z,12.75
2023-05-05T22:29:32.373Z,12.78
2023-05-05T22:34:38.487Z,13.14
2023-05-05T22:39:40.574Z,12.79
2023-05-05T22:44:42.033Z,12.90
2023-05-05T22:49:43.560Z,13.12
2023-05-05T22:54:45.203Z,13.07
2023-05-05T22:59:47.255Z,13.34
2023-05-05T23:04:48.845Z,13.45
2023-05-05T23:09:50.357Z,13.14
2023-05-05T23:14:52.365Z,13.24
2023-05-05T23:19:53.835Z,13.39
2023-05-05T23:24:55.318Z,13.36
2023-05-05T23:29:56.791Z,13.34
2023-05-05T23:34:58.261Z,13.45
2023-05-05T23:39:59.807Z,13.24
2023-05-05T23:45:01.332Z,13.13
2023-05-05T23:50:03.213Z,13.05
2023-05-05T23:55:05.604Z,12.99
